createdAt,value
2022-11-27T00:00:00.549Z,0.045
2022-11-27T00:01:00.318Z,0.045
2022-11-27T00:02:01.011Z,0.045
2022-11-27T00:03:00.501Z,0.045
2022-11-27T00:04:00.503Z,0.045
2022-11-27T00:05:00.313Z,0.045
2022-11-27T00:06:00.383Z,0.045
2022-11-27T00:07:00.307Z,0.045
2022-11-27T00:08:00.339Z,0.045
2022-11-27T00:09:00.249Z,0.045
2022-11-27T00:10:00.309Z,0.045
2022-11-27T00:11:00.282Z,0.045
2022-11-27T00:12:00.465Z,0.045
2022-11-27T00:13:00.303Z,0.045
2022-11-27T00:14:00.427Z,0.045
2022-11-27T00:15:00.324Z,0.045
2022-11-27T00:16:00.316Z,0.045
2022-11-27T00:17:00.343Z,0.045
2022-11-27T00:18:00.455Z,0.045
2022-11-27T00:19:00.321Z,0.045
2022-11-27T00:20:00.288Z,0.045
2022-11-27T00:21:00.441Z,0.045
2022-11-27T00:22:00.265Z,0.045
2022-11-27T00:23:00.445Z,0.045
2022-11-27T00:24:00.478Z,0.045
2022-11-27T00:25:00.328Z,0.045
2022-11-27T00:26:00.301Z,0.045
2022-11-27T00:27:00.290Z,0.045
2022-11-27T00:28:00.293Z,0.045
2022-11-27T00:29:00.272Z,0.045
2022-11-27T00:30:00.457Z,0.045
2022-11-27T00:31:00.325Z,0.045
2022-11-27T00:32:00.322Z,0.045
2022-11-27T00:33:00.332Z,0.045
2022-11-27T00:34:00.295Z,0.045
2022-11-27T00:35:00.404Z,0.045
2022-11-27T00:36:00.413Z,0.045
2022-11-27T00:37:00.282Z,0.045
2022-11-27T00:38:00.374Z,0.045
2022-11-27T00:39:00.336Z,0.045
2022-11-27T00:40:00.282Z,0.045
2022-11-27T00:41:00.274Z,0.045
2022-11-27T00:42:00.498Z,0.045
2022-11-27T00:43:00.294Z,0.045
2022-11-27T00:44:00.281Z,0.045
2022-11-27T00:45:00.307Z,0.045
2022-11-27T00:46:00.317Z,0.045
2022-11-27T00:47:00.368Z,0.045
2022-11-27T00:48:00.457Z,0.045
2022-11-27T00:49:00.365Z,0.045
2022-11-27T00:50:00.274Z,0.045
2022-11-27T00:51:00.289Z,0.045
2022-11-27T00:52:00.399Z,0.045
2022-11-27T00:53:00.305Z,0.045
2022-11-27T00:54:00.520Z,0.045
2022-11-27T00:55:00.367Z,0.045
2022-11-27T00:56:00.297Z,0.045
2022-11-27T00:57:00.282Z,0.045
2022-11-27T00:58:00.254Z,0.045
2022-11-27T00:59:00.369Z,0.045
2022-11-27T01:00:00.448Z,0.045
2022-11-27T01:01:00.295Z,0.045
2022-11-27T01:02:00.413Z,0.045
2022-11-27T01:03:00.371Z,0.045
2022-11-27T01:04:00.386Z,0.045
2022-11-27T01:05:00.361Z,0.045
2022-11-27T01:06:00.488Z,0.045
2022-11-27T01:07:00.433Z,0.045
2022-11-27T01:08:00.717Z,0.045
2022-11-27T01:09:00.579Z,0.045
2022-11-27T01:10:00.561Z,0.045
2022-11-27T01:11:00.322Z,0.045
2022-11-27T01:12:00.479Z,0.045
2022-11-27T01:13:00.305Z,0.045
2022-11-27T01:14:00.250Z,0.045
2022-11-27T01:15:00.285Z,0.045
2022-11-27T01:16:00.373Z,0.045
2022-11-27T01:17:00.310Z,0.045
2022-11-27T01:18:00.518Z,0.045
2022-11-27T01:19:00.410Z,0.045
2022-11-27T01:20:00.308Z,0.045
2022-11-27T01:21:00.329Z,0.045
2022-11-27T01:22:00.280Z,0.045
2022-11-27T01:23:00.275Z,0.045
2022-11-27T01:24:00.447Z,0.045
2022-11-27T01:25:00.310Z,0.045
2022-11-27T01:26:00.310Z,0.045
2022-11-27T01:27:00.306Z,0.045
2022-11-27T01:28:00.303Z,0.045
2022-11-27T01:29:00.283Z,0.045
2022-11-27T01:30:00.425Z,0.045
2022-11-27T01:31:00.411Z,0.045
2022-11-27T01:32:00.274Z,0.045
2022-11-27T01:33:00.279Z,0.045
2022-11-27T01:34:00.308Z,0.045
2022-11-27T01:35:00.303Z,0.045
2022-11-27T01:36:00.411Z,0.045
2022-11-27T01:37:00.316Z,0.045
2022-11-27T01:38:00.244Z,0.045
2022-11-27T01:39:00.253Z,0.045
2022-11-27T01:40:00.356Z,0.045
2022-11-27T01:41:00.324Z,0.045
2022-11-27T01:42:00.502Z,0.045
2022-11-27T01:43:00.294Z,0.045
2022-11-27T01:44:00.314Z,0.045
2022-11-27T01:45:00.250Z,0.045
2022-11-27T01:46:00.311Z,0.045
2022-11-27T01:47:00.380Z,0.045
2022-11-27T01:48:00.454Z,0.045
2022-11-27T01:49:00.300Z,0.045
2022-11-27T01:50:00.305Z,0.045
2022-11-27T01:51:00.244Z,0.045
2022-11-27T01:52:00.301Z,0.045
2022-11-27T01:53:00.269Z,0.045
2022-11-27T01:54:00.568Z,0.045
2022-11-27T01:55:00.273Z,0.045
2022-11-27T01:56:00.245Z,0.045
2022-11-27T01:57:00.335Z,0.045
2022-11-27T01:58:00.378Z,0.045
2022-11-27T01:59:00.299Z,0.045
2022-11-27T02:00:00.575Z,0.045
2022-11-27T02:01:00.340Z,0.045
2022-11-27T02:02:00.396Z,0.045
2022-11-27T02:03:00.626Z,0.045
2022-11-27T02:04:00.474Z,0.045
2022-11-27T02:05:00.315Z,0.045
2022-11-27T02:06:00.466Z,0.045
2022-11-27T02:07:00.248Z,0.045
2022-11-27T02:08:00.383Z,0.045
2022-11-27T02:09:00.271Z,0.045
2022-11-27T02:10:00.312Z,0.045
2022-11-27T02:11:00.244Z,0.045
2022-11-27T02:12:00.413Z,0.045
2022-11-27T02:13:00.276Z,0.045
2022-11-27T02:14:00.249Z,0.045
2022-11-27T02:15:00.310Z,0.045
2022-11-27T02:16:00.315Z,0.045
2022-11-27T02:17:00.302Z,0.045
2022-11-27T02:18:00.460Z,0.045
2022-11-27T02:19:00.259Z,0.045
2022-11-27T02:20:00.308Z,0.045
2022-11-27T02:21:00.403Z,0.045
2022-11-27T02:22:00.326Z,0.045
2022-11-27T02:23:00.374Z,0.045
2022-11-27T02:24:00.495Z,0.045
2022-11-27T02:25:00.290Z,0.045
2022-11-27T02:26:00.274Z,0.045
2022-11-27T02:27:00.282Z,0.045
2022-11-27T02:28:00.244Z,0.045
2022-11-27T02:29:00.274Z,0.045
2022-11-27T02:30:00.454Z,0.045
2022-11-27T02:31:00.264Z,0.045
2022-11-27T02:32:00.312Z,0.045
2022-11-27T02:33:00.304Z,0.045
2022-11-27T02:34:00.332Z,0.045
2022-11-27T02:35:00.340Z,0.045
2022-11-27T02:36:00.545Z,0.045
2022-11-27T02:37:00.353Z,0.045
2022-11-27T02:38:00.361Z,0.045
2022-11-27T02:39:00.274Z,0.045
2022-11-27T02:40:00.267Z,0.045
2022-11-27T02:41:00.273Z,0.045
2022-11-27T02:42:02.237Z,0.045
2022-11-27T02:43:00.377Z,0.045
2022-11-27T02:44:00.284Z,0.045
2022-11-27T02:45:00.276Z,0.045
2022-11-27T02:46:00.300Z,0.045
2022-11-27T02:47:00.252Z,0.045
2022-11-27T02:48:00.524Z,0.045
2022-11-27T02:49:00.278Z,0.045
2022-11-27T02:50:00.244Z,0.045
2022-11-27T02:51:00.407Z,0.045
2022-11-27T02:52:00.269Z,0.045
2022-11-27T02:53:00.247Z,0.045
2022-11-27T02:54:00.425Z,0.045
2022-11-27T02:55:00.304Z,0.045
2022-11-27T02:56:00.303Z,0.045
2022-11-27T02:57:00.303Z,0.045
2022-11-27T02:58:00.270Z,0.045
2022-11-27T02:59:00.244Z,0.045
2022-11-27T03:00:00.425Z,0.045
2022-11-27T03:01:00.306Z,0.045
2022-11-27T03:02:00.371Z,0.045
2022-11-27T03:03:00.460Z,0.045
2022-11-27T03:04:00.271Z,0.045
2022-11-27T03:05:00.300Z,0.045
2022-11-27T03:06:00.605Z,0.045
2022-11-27T03:07:00.323Z,0.045
2022-11-27T03:08:00.341Z,0.045
2022-11-27T03:09:00.305Z,0.045
2022-11-27T03:10:00.304Z,0.045
2022-11-27T03:11:00.241Z,0.045
2022-11-27T03:12:00.444Z,0.045
2022-11-27T03:13:00.303Z,0.045
2022-11-27T03:14:00.272Z,0.045
2022-11-27T03:15:00.343Z,0.045
2022-11-27T03:16:00.307Z,0.045
2022-11-27T03:17:00.269Z,0.045
2022-11-27T03:18:00.475Z,0.045
2022-11-27T03:19:00.271Z,0.045
2022-11-27T03:20:00.247Z,0.090
2022-11-27T03:21:00.364Z,0.090
2022-11-27T03:22:00.241Z,0.090
2022-11-27T03:23:00.353Z,0.090
2022-11-27T03:24:00.417Z,0.090
2022-11-27T03:25:00.270Z,0.135
2022-11-27T03:26:00.380Z,0.135
2022-11-27T03:27:00.354Z,0.180
2022-11-27T03:28:00.384Z,0.180
2022-11-27T03:29:00.303Z,0.225
2022-11-27T03:30:00.534Z,0.270
2022-11-27T03:31:00.331Z,0.270
2022-11-27T03:32:00.304Z,0.360
2022-11-27T03:33:00.341Z,0.405
2022-11-27T03:34:00.350Z,0.495
2022-11-27T03:35:00.245Z,0.630
2022-11-27T03:36:00.518Z,0.765
2022-11-27T03:37:00.446Z,0.945
2022-11-27T03:38:00.251Z,1.170
2022-11-27T03:39:00.271Z,1.395
2022-11-27T03:40:00.269Z,1.845
2022-11-27T03:41:00.308Z,2.385
2022-11-27T03:42:00.387Z,3.060
2022-11-27T03:43:00.271Z,3.780
2022-11-27T03:44:00.298Z,4.680
2022-11-27T03:45:00.352Z,5.760
2022-11-27T03:46:00.338Z,6.930
2022-11-27T03:47:00.321Z,8.280
2022-11-27T03:48:00.461Z,9.855
2022-11-27T03:49:00.278Z,11.475
2022-11-27T03:50:00.256Z,13.320
2022-11-27T03:51:00.283Z,15.300
2022-11-27T03:52:00.439Z,17.460
2022-11-27T03:53:00.426Z,19.710
2022-11-27T03:54:00.391Z,21.960
2022-11-27T03:55:00.302Z,24.300
2022-11-27T03:56:03.177Z,27.000
2022-11-27T03:57:00.283Z,29.520
2022-11-27T03:58:00.273Z,32.040
2022-11-27T03:59:00.325Z,34.560
2022-11-27T04:00:00.429Z,37.620
2022-11-27T04:01:00.314Z,41.040
2022-11-27T04:02:00.356Z,44.820
2022-11-27T04:03:00.318Z,48.600
2022-11-27T04:04:00.363Z,52.560
2022-11-27T04:05:00.254Z,55.800
2022-11-27T04:06:00.401Z,59.400
2022-11-27T04:07:00.339Z,64.800
2022-11-27T04:08:00.298Z,71.640
2022-11-27T04:09:00.351Z,78.120
2022-11-27T04:10:00.281Z,85.320
2022-11-27T04:11:00.329Z,90.000
2022-11-27T04:12:00.477Z,95.040
2022-11-27T04:13:00.290Z,101.520
2022-11-27T04:14:00.251Z,109.440
2022-11-27T04:15:00.315Z,118.080
2022-11-27T04:16:00.316Z,126.000
2022-11-27T04:17:00.285Z,133.200
2022-11-27T04:18:00.504Z,140.400
2022-11-27T04:19:00.282Z,146.880
2022-11-27T04:20:00.306Z,156.960
2022-11-27T04:21:00.270Z,172.080
2022-11-27T04:22:00.309Z,190.080
2022-11-27T04:23:00.354Z,210.240
2022-11-27T04:24:00.390Z,234.720
2022-11-27T04:25:00.279Z,259.200
2022-11-27T04:26:00.251Z,279.360
2022-11-27T04:27:00.274Z,296.640
2022-11-27T04:28:00.332Z,312.480
2022-11-27T04:29:00.339Z,332.640
2022-11-27T04:30:00.615Z,347.040
2022-11-27T04:31:00.409Z,367.200
2022-11-27T04:32:00.308Z,380.160
2022-11-27T04:33:00.327Z,394.560
2022-11-27T04:34:00.359Z,403.200
2022-11-27T04:35:00.276Z,411.840
2022-11-27T04:36:00.489Z,417.600
2022-11-27T04:37:00.315Z,426.240
2022-11-27T04:38:00.417Z,443.520
2022-11-27T04:39:00.273Z,472.320
2022-11-27T04:40:00.252Z,498.240
2022-11-27T04:41:00.256Z,521.280
2022-11-27T04:42:00.402Z,547.200
2022-11-27T04:43:00.255Z,570.240
2022-11-27T04:44:00.284Z,587.520
2022-11-27T04:45:00.277Z,604.800
2022-11-27T04:46:00.279Z,622.080
2022-11-27T04:47:00.377Z,642.240
2022-11-27T04:48:00.506Z,673.920
2022-11-27T04:49:00.408Z,714.240
2022-11-27T04:50:00.328Z,754.560
2022-11-27T04:51:00.379Z,806.400
2022-11-27T04:52:00.311Z,869.760
2022-11-27T04:53:00.390Z,933.120
2022-11-27T04:54:00.390Z,979.200
2022-11-27T04:55:00.675Z,996.480
2022-11-27T04:56:00.251Z,1077.120
2022-11-27T04:57:00.296Z,1105.920
2022-11-27T04:58:00.248Z,1140.480
2022-11-27T04:59:00.316Z,1169.280
2022-11-27T05:00:00.471Z,1192.320
2022-11-27T05:01:00.384Z,1238.400
2022-11-27T05:02:00.335Z,1290.240
2022-11-27T05:03:00.409Z,1336.320
2022-11-27T05:04:00.332Z,1382.400
2022-11-27T05:05:00.351Z,1428.480
2022-11-27T05:06:00.518Z,1486.080
2022-11-27T05:07:00.371Z,1520.640
2022-11-27T05:08:00.442Z,1520.640
2022-11-27T05:09:00.440Z,1474.560
2022-11-27T05:10:00.260Z,1445.760
2022-11-27T05:11:00.247Z,1451.520
2022-11-27T05:12:00.465Z,1532.160
2022-11-27T05:13:00.308Z,1658.880
2022-11-27T05:14:00.279Z,2039.040
2022-11-27T05:15:04.193Z,2177.280
2022-11-27T05:16:00.334Z,2119.680
2022-11-27T05:17:00.280Z,2257.920
2022-11-27T05:18:00.460Z,2361.600
2022-11-27T05:19:00.276Z,2511.360
2022-11-27T05:20:00.259Z,2822.400
2022-11-27T05:21:00.262Z,5091.840
2022-11-27T05:22:00.281Z,15298.560
2022-11-27T05:23:00.330Z,6589.440
2022-11-27T05:24:00.447Z,3732.480
2022-11-27T05:25:00.400Z,5068.800
2022-11-27T05:26:00.246Z,7649.280
2022-11-27T05:27:00.290Z,3087.360
2022-11-27T05:28:00.279Z,2868.480
2022-11-27T05:29:00.313Z,3340.800
2022-11-27T05:30:00.412Z,15482.880
2022-11-27T05:31:00.332Z,12441.600
2022-11-27T05:32:00.278Z,3801.600
2022-11-27T05:33:00.284Z,2096.640
2022-11-27T05:34:00.250Z,1820.160
2022-11-27T05:35:00.276Z,1774.080
2022-11-27T05:36:00.422Z,1935.360
2022-11-27T05:37:00.312Z,2430.720
2022-11-27T05:38:00.279Z,4700.160
2022-11-27T05:39:00.379Z,12072.960
2022-11-27T05:40:00.313Z,2764.800
2022-11-27T05:41:00.316Z,2269.440
2022-11-27T05:42:00.417Z,2211.840
2022-11-27T05:43:00.288Z,2131.200
2022-11-27T05:44:00.249Z,2027.520
2022-11-27T05:45:00.287Z,2073.600
2022-11-27T05:46:00.304Z,2188.800
2022-11-27T05:47:00.382Z,2511.360
2022-11-27T05:48:00.553Z,2972.160
2022-11-27T05:49:00.383Z,3732.480
2022-11-27T05:50:00.254Z,13731.840
2022-11-27T05:51:00.311Z,19814.400
2022-11-27T05:52:00.361Z,17141.760
2022-11-27T05:53:00.313Z,4032.000
2022-11-27T05:54:00.481Z,15482.880
2022-11-27T05:55:00.510Z,21934.080
2022-11-27T05:56:00.306Z,10368.000
2022-11-27T05:57:00.312Z,5207.040
2022-11-27T05:58:00.304Z,3525.120
2022-11-27T05:59:00.308Z,3064.320
2022-11-27T06:00:00.481Z,2833.920
2022-11-27T06:01:00.264Z,2868.480
2022-11-27T06:02:00.421Z,5091.840
2022-11-27T06:03:00.446Z,17879.039
2022-11-27T06:04:00.314Z,21473.279
2022-11-27T06:05:00.308Z,20551.680
2022-11-27T06:06:00.523Z,21288.961
2022-11-27T06:07:00.279Z,17233.920
2022-11-27T06:08:00.319Z,4446.720
2022-11-27T06:09:00.320Z,21381.119
2022-11-27T06:10:00.524Z,14561.280
2022-11-27T06:11:00.254Z,5713.920
2022-11-27T06:12:00.409Z,3156.480
2022-11-27T06:13:00.349Z,3133.440
2022-11-27T06:14:00.314Z,3156.480
2022-11-27T06:15:00.356Z,3248.640
2022-11-27T06:16:00.399Z,3317.760
2022-11-27T06:17:00.299Z,3248.640
2022-11-27T06:18:00.391Z,3317.760
2022-11-27T06:19:00.280Z,3179.520
2022-11-27T06:20:00.335Z,3110.400
2022-11-27T06:21:00.311Z,3225.600
2022-11-27T06:22:00.308Z,3386.880
2022-11-27T06:23:00.311Z,3502.080
2022-11-27T06:24:00.484Z,3502.080
2022-11-27T06:25:00.501Z,3663.360
2022-11-27T06:26:00.285Z,3801.600
2022-11-27T06:27:00.249Z,3939.840
2022-11-27T06:28:00.338Z,3916.800
2022-11-27T06:29:00.348Z,4101.120
2022-11-27T06:30:00.499Z,3893.760
2022-11-27T06:31:00.379Z,3571.200
2022-11-27T06:32:00.296Z,3386.880
2022-11-27T06:33:00.284Z,3294.720
2022-11-27T06:34:00.390Z,3271.680
2022-11-27T06:35:00.303Z,3087.360
2022-11-27T06:36:00.428Z,2995.200
2022-11-27T06:37:00.266Z,3110.400
2022-11-27T06:38:00.367Z,3133.440
2022-11-27T06:39:00.286Z,3064.320
2022-11-27T06:40:00.454Z,2972.160
2022-11-27T06:41:00.277Z,2856.960
2022-11-27T06:42:00.510Z,2787.840
2022-11-27T06:43:00.315Z,2764.800
2022-11-27T06:44:00.251Z,2764.800
2022-11-27T06:45:00.304Z,2776.320
2022-11-27T06:46:00.427Z,2764.800
2022-11-27T06:47:00.307Z,2730.240
2022-11-27T06:48:00.410Z,2730.240
2022-11-27T06:49:00.275Z,2799.360
2022-11-27T06:50:00.277Z,2856.960
2022-11-27T06:51:00.277Z,2903.040
2022-11-27T06:52:00.288Z,2972.160
2022-11-27T06:53:00.248Z,2949.120
2022-11-27T06:54:00.512Z,2914.560
2022-11-27T06:55:00.418Z,2534.400
2022-11-27T06:56:00.334Z,2430.720
2022-11-27T06:57:00.275Z,2384.640
2022-11-27T06:58:00.247Z,2649.600
2022-11-27T06:59:00.318Z,3041.280
2022-11-27T07:00:00.859Z,3133.440
2022-11-27T07:01:00.319Z,3133.440
2022-11-27T07:02:00.321Z,3179.520
2022-11-27T07:03:00.322Z,3018.240
2022-11-27T07:04:00.290Z,2753.280
2022-11-27T07:05:00.313Z,3479.040
2022-11-27T07:06:00.425Z,3594.240
2022-11-27T07:07:00.248Z,3317.760
2022-11-27T07:08:00.324Z,3340.800
2022-11-27T07:09:00.314Z,3409.920
2022-11-27T07:10:00.360Z,3594.240
2022-11-27T07:11:00.401Z,3755.520
2022-11-27T07:12:00.807Z,3709.440
2022-11-27T07:13:00.326Z,3502.080
2022-11-27T07:14:00.307Z,3732.480
2022-11-27T07:15:04.023Z,4008.960
2022-11-27T07:16:00.296Z,3732.480
2022-11-27T07:17:00.303Z,3110.400
2022-11-27T07:18:00.387Z,3502.080
2022-11-27T07:19:00.307Z,4239.360
2022-11-27T07:20:00.416Z,5022.720
2022-11-27T07:21:00.272Z,4999.680
2022-11-27T07:22:00.279Z,4308.480
2022-11-27T07:23:00.255Z,4101.120
2022-11-27T07:24:00.496Z,4423.680
2022-11-27T07:25:00.268Z,4032.000
2022-11-27T07:26:00.386Z,3962.880
2022-11-27T07:27:00.376Z,4078.080
2022-11-27T07:28:00.248Z,4377.600
2022-11-27T07:29:00.303Z,4723.200
2022-11-27T07:30:00.418Z,4608.000
2022-11-27T07:31:00.257Z,3732.480
2022-11-27T07:32:00.354Z,3156.480
2022-11-27T07:33:00.280Z,3432.960
2022-11-27T07:34:00.306Z,4101.120
2022-11-27T07:35:00.317Z,4999.680
2022-11-27T07:36:00.415Z,5529.600
2022-11-27T07:37:00.303Z,4884.480
2022-11-27T07:38:00.278Z,4331.520
2022-11-27T07:39:00.247Z,4469.760
2022-11-27T07:40:03.299Z,3962.880
2022-11-27T07:41:00.280Z,3870.720
2022-11-27T07:42:23.064Z,3525.120
2022-11-27T07:43:00.276Z,3985.920
2022-11-27T07:44:00.281Z,4584.960
2022-11-27T07:45:00.276Z,4285.440
2022-11-27T07:46:00.343Z,3571.200
2022-11-27T07:47:00.277Z,3479.040
2022-11-27T07:48:00.420Z,3456.000
2022-11-27T07:49:00.321Z,3548.160
2022-11-27T07:50:00.317Z,3686.400
2022-11-27T07:51:00.274Z,3755.520
2022-11-27T07:52:00.274Z,3870.720
2022-11-27T07:53:00.282Z,4492.800
2022-11-27T07:54:00.453Z,4700.160
2022-11-27T07:55:00.257Z,4262.400
2022-11-27T07:56:00.285Z,3985.920
2022-11-27T07:57:00.415Z,4124.160
2022-11-27T07:58:00.349Z,4239.360
2022-11-27T07:59:00.332Z,4170.240
2022-11-27T08:00:00.410Z,3962.880
2022-11-27T08:01:00.367Z,4239.360
2022-11-27T08:02:00.284Z,4101.120
2022-11-27T08:03:00.260Z,4193.280
2022-11-27T08:04:00.305Z,4285.440
2022-11-27T08:05:00.472Z,4354.560
2022-11-27T08:06:00.411Z,4515.840
2022-11-27T08:07:00.293Z,4423.680
2022-11-27T08:08:00.430Z,4239.360
2022-11-27T08:09:00.248Z,4354.560
2022-11-27T08:10:00.311Z,4331.520
2022-11-27T08:11:00.310Z,4032.000
2022-11-27T08:12:00.550Z,3801.600
2022-11-27T08:13:00.592Z,4101.120
2022-11-27T08:14:00.284Z,4078.080
2022-11-27T08:15:00.276Z,4469.760
2022-11-27T08:16:00.378Z,16128.000
2022-11-27T08:17:00.342Z,28385.279
2022-11-27T08:18:00.454Z,29122.561
2022-11-27T08:19:00.253Z,28753.920
2022-11-27T08:20:00.312Z,28938.240
2022-11-27T08:21:00.357Z,29491.199
2022-11-27T08:22:00.245Z,29122.561
2022-11-27T08:23:03.025Z,14653.440
2022-11-27T08:24:00.504Z,27095.039
2022-11-27T08:25:00.313Z,28753.920
2022-11-27T08:26:00.311Z,28016.641
2022-11-27T08:27:00.313Z,28385.279
2022-11-27T08:28:00.398Z,28200.961
2022-11-27T08:29:00.282Z,28569.600
2022-11-27T08:30:00.390Z,28938.240
2022-11-27T08:31:00.249Z,29306.881
2022-11-27T08:32:00.330Z,29491.199
2022-11-27T08:33:00.379Z,29306.881
2022-11-27T08:34:00.288Z,29491.199
2022-11-27T08:35:00.310Z,29491.199
2022-11-27T08:36:00.765Z,29491.199
2022-11-27T08:37:00.306Z,29675.520
2022-11-27T08:38:00.280Z,29306.881
2022-11-27T08:39:00.551Z,29859.840
2022-11-27T08:40:00.307Z,29306.881
2022-11-27T08:41:00.362Z,29675.520
2022-11-27T08:42:00.576Z,29491.199
2022-11-27T08:43:00.491Z,29859.840
2022-11-27T08:44:00.584Z,27095.039
2022-11-27T08:45:00.729Z,28385.279
2022-11-27T08:46:00.536Z,28938.240
2022-11-27T08:47:00.678Z,29491.199
2022-11-27T08:48:00.791Z,29859.840
2022-11-27T08:49:00.370Z,29491.199
2022-11-27T08:50:00.294Z,29675.520
2022-11-27T08:51:00.690Z,29675.520
2022-11-27T08:52:00.628Z,29675.520
2022-11-27T08:53:00.770Z,30044.160
2022-11-27T08:54:00.955Z,30228.480
2022-11-27T08:55:00.712Z,30228.480
2022-11-27T08:56:00.734Z,30228.480
2022-11-27T08:57:00.668Z,30412.801
2022-11-27T08:58:00.510Z,30412.801
2022-11-27T08:59:00.437Z,30597.119
2022-11-27T09:00:00.538Z,30965.760
2022-11-27T09:01:00.396Z,31150.080
2022-11-27T09:02:00.249Z,31334.400
2022-11-27T09:03:00.249Z,31150.080
2022-11-27T09:04:00.351Z,6912.000
2022-11-27T09:05:00.272Z,4654.080
2022-11-27T09:06:00.495Z,30597.119
2022-11-27T09:07:00.462Z,30044.160
2022-11-27T09:08:00.378Z,29491.199
2022-11-27T09:09:00.311Z,30044.160
2022-11-27T09:10:00.290Z,29859.840
2022-11-27T09:11:00.316Z,30228.480
2022-11-27T09:12:00.447Z,30044.160
2022-11-27T09:13:00.540Z,29859.840
2022-11-27T09:14:00.366Z,29859.840
2022-11-27T09:15:00.311Z,30044.160
2022-11-27T09:16:00.454Z,30228.480
2022-11-27T09:17:00.331Z,30412.801
2022-11-27T09:18:00.450Z,30228.480
2022-11-27T09:19:00.311Z,30044.160
2022-11-27T09:20:00.304Z,29859.840
2022-11-27T09:21:00.294Z,29491.199
2022-11-27T09:22:00.295Z,29859.840
2022-11-27T09:23:00.252Z,29859.840
2022-11-27T09:24:00.531Z,29306.881
2022-11-27T09:25:00.248Z,29306.881
2022-11-27T09:26:00.342Z,28385.279
2022-11-27T09:27:00.303Z,28938.240
2022-11-27T09:28:00.367Z,28200.961
2022-11-27T09:29:00.454Z,28569.600
2022-11-27T09:30:00.447Z,28753.920
2022-11-27T09:31:00.282Z,28938.240
2022-11-27T09:32:00.475Z,29122.561
2022-11-27T09:33:00.316Z,29306.881
2022-11-27T09:34:00.356Z,29491.199
2022-11-27T09:35:00.362Z,29122.561
2022-11-27T09:36:00.412Z,29491.199
2022-11-27T09:37:00.249Z,29675.520
2022-11-27T09:38:00.304Z,30412.801
2022-11-27T09:39:00.289Z,34836.480
2022-11-27T09:40:00.286Z,42577.922
2022-11-27T09:41:03.081Z,53084.160
2022-11-27T09:42:00.427Z,64512.000
2022-11-27T09:43:00.278Z,72990.719
2022-11-27T09:44:00.326Z,77783.039
2022-11-27T09:45:00.419Z,78888.961
2022-11-27T09:46:00.368Z,78151.680
2022-11-27T09:47:00.309Z,77414.398
2022-11-27T09:48:00.458Z,77414.398
2022-11-27T09:49:00.282Z,77414.398
2022-11-27T09:50:00.276Z,77783.039
2022-11-27T09:51:00.339Z,78151.680
2022-11-27T09:52:00.409Z,78151.680
2022-11-27T09:53:00.296Z,78520.320
2022-11-27T09:54:00.445Z,78888.961
2022-11-27T09:55:00.291Z,78520.320
2022-11-27T09:56:00.402Z,77783.039
2022-11-27T09:57:00.314Z,76308.477
2022-11-27T09:58:00.315Z,73728.000
2022-11-27T09:59:00.278Z,69304.320
2022-11-27T10:00:00.433Z,64143.359
2022-11-27T10:01:00.400Z,58613.762
2022-11-27T10:02:00.511Z,53084.160
2022-11-27T10:03:00.438Z,47185.922
2022-11-27T10:04:00.289Z,41103.359
2022-11-27T10:05:14.597Z,36311.039
2022-11-27T10:06:00.467Z,32256.000
2022-11-27T10:07:00.286Z,30228.480
2022-11-27T10:08:06.079Z,29306.881
2022-11-27T10:09:00.281Z,28938.240
2022-11-27T10:10:00.280Z,28569.600
2022-11-27T10:11:00.249Z,28200.961
2022-11-27T10:12:00.525Z,27832.320
2022-11-27T10:13:00.285Z,27648.000
2022-11-27T10:14:00.250Z,27832.320
2022-11-27T10:15:00.332Z,27832.320
2022-11-27T10:16:00.572Z,26542.080
2022-11-27T10:17:00.328Z,26357.760
2022-11-27T10:18:00.483Z,25436.160
2022-11-27T10:19:00.280Z,25251.840
2022-11-27T10:20:00.336Z,25436.160
2022-11-27T10:21:00.323Z,25804.801
2022-11-27T10:22:00.344Z,26173.439
2022-11-27T10:23:00.285Z,26357.760
2022-11-27T10:24:00.523Z,26357.760
2022-11-27T10:25:00.281Z,26542.080
2022-11-27T10:26:00.315Z,26542.080
2022-11-27T10:27:00.294Z,26726.400
2022-11-27T10:28:00.255Z,26726.400
2022-11-27T10:29:00.276Z,26726.400
2022-11-27T10:30:00.451Z,26726.400
2022-11-27T10:31:00.386Z,26910.721
2022-11-27T10:32:00.351Z,26726.400
2022-11-27T10:33:00.370Z,26542.080
2022-11-27T10:34:00.274Z,26542.080
2022-11-27T10:35:00.252Z,26357.760
2022-11-27T10:36:00.562Z,25989.119
2022-11-27T10:37:00.366Z,26173.439
2022-11-27T10:38:05.308Z,25067.520
2022-11-27T10:39:00.372Z,23777.279
2022-11-27T10:40:00.299Z,20736.000
2022-11-27T10:41:00.323Z,20920.320
2022-11-27T10:42:00.781Z,24330.240
2022-11-27T10:43:00.315Z,23777.279
2022-11-27T10:44:01.787Z,23961.600
2022-11-27T10:45:00.321Z,24145.920
2022-11-27T10:46:00.659Z,25067.520
2022-11-27T10:47:00.518Z,25804.801
2022-11-27T10:48:00.634Z,25436.160
2022-11-27T10:49:00.426Z,21473.279
2022-11-27T10:50:00.313Z,16128.000
2022-11-27T10:51:00.311Z,17694.721
2022-11-27T10:52:00.302Z,23040.000
2022-11-27T10:53:00.307Z,22947.840
2022-11-27T10:54:00.491Z,20551.680
2022-11-27T10:55:00.315Z,22210.561
2022-11-27T10:56:00.275Z,25989.119
2022-11-27T10:57:00.262Z,26173.439
2022-11-27T10:58:00.361Z,26173.439
2022-11-27T10:59:00.318Z,25620.480
2022-11-27T11:00:00.608Z,25620.480
2022-11-27T11:01:00.379Z,24145.920
2022-11-27T11:02:00.480Z,23408.641
2022-11-27T11:03:00.288Z,23961.600
2022-11-27T11:04:00.437Z,23961.600
2022-11-27T11:05:30.146Z,23316.480
2022-11-27T11:06:20.743Z,23316.480
2022-11-27T11:07:00.311Z,23592.961
2022-11-27T11:08:00.319Z,24145.920
2022-11-27T11:09:01.534Z,24145.920
2022-11-27T11:10:00.264Z,23132.160
2022-11-27T11:11:00.279Z,22763.520
2022-11-27T11:12:00.531Z,22855.680
2022-11-27T11:13:00.393Z,18616.320
2022-11-27T11:14:00.270Z,11197.440
2022-11-27T11:15:00.292Z,4515.840
2022-11-27T11:16:00.294Z,2649.600
2022-11-27T11:17:00.550Z,2603.520
2022-11-27T11:18:00.346Z,2557.440
2022-11-27T11:19:00.251Z,2522.880
2022-11-27T11:20:00.275Z,2499.840
2022-11-27T11:21:00.305Z,2488.320
2022-11-27T11:22:00.248Z,2488.320
2022-11-27T11:23:00.283Z,2465.280
2022-11-27T11:24:00.381Z,2419.200
2022-11-27T11:25:00.281Z,2361.600
2022-11-27T11:26:00.256Z,2315.520
2022-11-27T11:27:00.316Z,2257.920
2022-11-27T11:28:00.256Z,2211.840
2022-11-27T11:29:00.351Z,2200.320
2022-11-27T11:30:00.687Z,2165.760
2022-11-27T11:31:00.346Z,2165.760
2022-11-27T11:32:00.439Z,2154.240
2022-11-27T11:33:00.280Z,2154.240
2022-11-27T11:34:00.304Z,2142.720
2022-11-27T11:35:01.436Z,2131.200
2022-11-27T11:36:00.464Z,2131.200
2022-11-27T11:37:00.306Z,2131.200
2022-11-27T11:38:00.275Z,2119.680
2022-11-27T11:39:00.281Z,2085.120
2022-11-27T11:40:00.250Z,2039.040
2022-11-27T11:41:00.259Z,2004.480
2022-11-27T11:42:00.580Z,1969.920
2022-11-27T11:43:00.287Z,1958.400
2022-11-27T11:44:00.308Z,1946.880
2022-11-27T11:45:00.310Z,1946.880
2022-11-27T11:46:00.425Z,1958.400
2022-11-27T11:47:00.421Z,1958.400
2022-11-27T11:48:00.446Z,1946.880
2022-11-27T11:49:00.310Z,1946.880
2022-11-27T11:50:00.319Z,1946.880
2022-11-27T11:51:00.264Z,1935.360
2022-11-27T11:52:00.292Z,1912.320
2022-11-27T11:53:00.310Z,1889.280
2022-11-27T11:54:00.443Z,1866.240
2022-11-27T11:55:00.292Z,1843.200
2022-11-27T11:56:00.296Z,1831.680
2022-11-27T11:57:00.252Z,1831.680
2022-11-27T11:58:00.343Z,1831.680
2022-11-27T11:59:00.328Z,1831.680
2022-11-27T12:00:00.502Z,1831.680
2022-11-27T12:01:26.048Z,1808.640